Time;durP1;ratioP1;P1;durP2;ratioP2;P2;SDS_P1;SDS_P2;PMS_P1;PMS_P2;Temp;Humidity;BMP_temperature;BMP_pressure;BME280_temperature;BME280_humidity;BME280_pressure;Samples;Min_cycle;Max_cycle;Signal;HPM_P1;HPM_P2
2023/06/29 00:00:23;;;;;;;10.52;4.45;;;;;;;15.70;89.46;96338.56;5093797;28;20075;-61
2023/06/29 00:02:52;;;;;;;6.93;3.90;;;;;;;15.66;88.48;96344.03;5093682;28;20105;-62
2023/06/29 00:05:21;;;;;;;7.15;4.35;;;;;;;15.62;89.81;96368.88;5093548;28;20051;-63
2023/06/29 00:07:49;;;;;;;5.60;3.90;;;;;;;15.65;88.79;96376.63;5093570;28;20048;-62
2023/06/29 00:10:17;;;;;;;6.57;3.70;;;;;;;15.49;84.63;96376.72;5093536;28;20427;-62
2023/06/29 00:12:44;;;;;;;7.55;4.28;;;;;;;15.51;85.65;96379.25;5093504;28;20138;-63
2023/06/29 00:15:11;;;;;;;5.45;3.70;;;;;;;15.42;83.56;96375.38;5093440;28;20452;-63
2023/06/29 00:17:39;;;;;;;7.30;4.20;;;;;;;15.40;85.37;96375.47;5093327;28;20048;-62
2023/06/29 00:20:10;;;;;;;7.60;4.75;;;;;;;15.40;84.18;96367.56;5093004;28;20066;-62
2023/06/29 00:22:40;;;;;;;4.25;3.85;;;;;;;15.36;85.51;96366.06;5093379;28;20066;-62
2023/06/29 00:25:10;;;;;;;8.40;4.55;;;;;;;15.33;86.67;96352.22;5093272;28;20071;-63
2023/06/29 00:27:37;;;;;;;6.03;4.20;;;;;;;15.21;86.07;96353.81;5093329;28;20051;-63
2023/06/29 00:30:05;;;;;;;6.65;4.72;;;;;;;15.20;87.46;96355.59;5093177;28;20105;-62
2023/06/29 00:32:32;;;;;;;6.57;4.78;;;;;;;15.20;85.07;96336.31;5093187;28;20105;-62
2023/06/29 00:35:01;;;;;;;7.07;3.78;;;;;;;15.16;85.02;96335.63;5093134;28;20079;-62
2023/06/29 00:37:28;;;;;;;6.32;4.40;;;;;;;15.13;85.55;96333.19;5093190;28;20048;-62
2023/06/29 00:39:55;;;;;;;6.13;4.25;;;;;;;15.05;84.92;96324.91;5093081;28;20382;-62
2023/06/29 00:42:23;;;;;;;5.63;4.28;;;;;;;15.05;85.56;96322.28;5093037;28;20490;-62
2023/06/29 00:44:50;;;;;;;5.53;4.40;;;;;;;15.08;87.07;96317.66;5093006;28;20051;-62
2023/06/29 00:47:17;;;;;;;5.88;4.85;;;;;;;15.11;87.26;96342.97;5093134;28;20040;-62
2023/06/29 00:49:45;;;;;;;10.10;4.57;;;;;;;15.07;89.40;96347.56;5093271;28;20475;-62
2023/06/29 00:52:12;;;;;;;6.50;4.80;;;;;;;15.03;90.88;96343.44;5092991;28;20401;-62
2023/06/29 00:54:39;;;;;;;7.30;5.85;;;;;;;14.95;88.74;96354.41;5093073;28;20052;-62
2023/06/29 00:57:08;;;;;;;8.27;5.15;;;;;;;14.97;89.85;96343.78;5093081;28;20409;-62
2023/06/29 00:59:37;;;;;;;6.65;5.10;;;;;;;15.01;90.35;96343.53;5092839;28;20048;-63
2023/06/29 01:02:04;;;;;;;8.20;4.65;;;;;;;15.03;89.98;96339.00;5092893;28;20052;-62
2023/06/29 01:04:33;;;;;;;4.82;4.30;;;;;;;15.03;88.44;96340.78;5093019;28;20048;-62
2023/06/29 01:07:08;;;;;;;13.85;4.90;;;;;;;15.09;88.96;96358.88;5093040;28;20136;-62
2023/06/29 01:09:36;;;;;;;8.75;5.82;;;;;;;15.13;90.07;96368.28;5092769;28;20052;-62
2023/06/29 01:12:05;;;;;;;7.35;5.68;;;;;;;15.18;90.57;96367.16;5092924;28;20093;-62
2023/06/29 01:14:34;;;;;;;5.28;4.78;;;;;;;15.16;89.74;96365.47;5092914;28;20101;-62
2023/06/29 01:17:03;;;;;;;6.32;4.65;;;;;;;15.15;89.26;96357.66;5092946;28;20044;-63
2023/06/29 01:19:33;;;;;;;7.00;4.90;;;;;;;15.05;87.17;96359.97;5093028;28;20048;-63
2023/06/29 01:22:04;;;;;;;5.88;5.28;;;;;;;15.05;88.17;96359.16;5092816;28;20044;-61
2023/06/29 01:24:39;;;;;;;7.65;4.75;;;;;;;15.00;87.79;96365.53;5092723;28;20135;-62
2023/06/29 01:27:08;;;;;;;5.03;4.22;;;;;;;14.90;86.72;96367.84;5092700;28;20131;-62
2023/06/29 01:29:35;;;;;;;7.32;4.43;;;;;;;14.86;86.54;96373.38;5092732;28;20485;-62
2023/06/29 01:32:03;;;;;;;8.27;5.07;;;;;;;14.86;88.63;96384.75;5092675;28;20044;-63
2023/06/29 01:34:32;;;;;;;6.05;5.45;;;;;;;14.72;89.18;96382.88;5096302;28;20048;-63
2023/06/29 01:37:03;;;;;;;6.28;4.82;;;;;;;14.70;88.79;96378.66;5096485;28;20093;-63
2023/06/29 01:39:38;;;;;;;6.97;5.50;;;;;;;14.70;90.06;96384.78;5096374;28;20047;-63
2023/06/29 01:42:08;;;;;;;4.30;3.90;;;;;;;14.70;89.14;96384.78;5096210;28;20066;-61
2023/06/29 01:44:35;;;;;;;8.40;4.47;;;;;;;14.65;89.06;96377.13;5096247;28;20507;-62
2023/06/29 01:47:02;;;;;;;5.60;4.75;;;;;;;14.62;90.36;96369.41;5096618;28;20101;-62
2023/06/29 01:49:29;;;;;;;7.20;4.65;;;;;;;14.55;90.25;96370.69;5096198;28;20134;-62
2023/06/29 01:51:56;;;;;;;4.50;4.10;;;;;;;14.58;89.90;96367.91;5096376;28;20078;-61
2023/06/29 01:54:24;;;;;;;5.88;4.68;;;;;;;14.64;91.25;96364.06;5096038;28;20048;-60
2023/06/29 01:56:51;;;;;;;8.05;5.00;;;;;;;14.69;91.36;96356.72;5096245;28;20052;-61
2023/06/29 01:59:19;;;;;;;6.18;4.95;;;;;;;14.72;91.05;96356.56;5095937;28;20048;-61
2023/06/29 02:01:46;;;;;;;7.40;5.28;;;;;;;14.78;91.75;96352.78;5095971;28;20046;-62
2023/06/29 02:04:13;;;;;;;9.85;4.97;;;;;;;14.88;91.80;96353.94;5095929;28;20047;-62
2023/06/29 02:06:40;;;;;;;8.18;4.97;;;;;;;14.93;91.53;96343.09;5095739;28;20040;-61
2023/06/29 02:09:07;;;;;;;9.63;5.22;;;;;;;14.91;90.78;96340.56;5095989;28;20044;-62
2023/06/29 02:11:34;;;;;;;7.97;5.40;;;;;;;14.95;90.14;96348.28;5095746;28;20048;-62
2023/06/29 02:14:01;;;;;;;5.50;4.75;;;;;;;15.02;90.56;96352.28;5095724;28;20102;-62
2023/06/29 02:16:30;;;;;;;8.20;4.50;;;;;;;15.06;90.33;96335.34;5095639;28;20048;-61
2023/06/29 02:18:57;;;;;;;4.82;4.05;;;;;;;15.06;89.34;96329.22;5095473;28;20051;-62
2023/06/29 02:21:24;;;;;;;4.72;4.20;;;;;;;15.02;87.42;96341.75;5095904;28;20122;-62
2023/06/29 02:23:51;;;;;;;16.35;4.70;;;;;;;15.06;89.01;96350.28;5095624;28;20055;-62
2023/06/29 02:26:18;;;;;;;4.93;4.22;;;;;;;14.99;89.76;96347.19;5095543;28;20117;-62
2023/06/29 02:28:45;;;;;;;10.35;4.30;;;;;;;14.97;89.11;96349.06;5095579;28;20048;-61
2023/06/29 02:31:12;;;;;;;5.90;4.45;;;;;;;14.99;89.73;96357.72;5095388;28;20044;-63
2023/06/29 02:33:41;;;;;;;5.13;4.63;;;;;;;15.01;90.07;96356.69;5095251;28;20135;-62
2023/06/29 02:36:09;;;;;;;8.80;4.57;;;;;;;15.03;90.22;96351.34;5095247;28;20052;-62
2023/06/29 02:38:36;;;;;;;5.47;4.40;;;;;;;14.96;90.83;96345.56;5095524;28;20044;-63
2023/06/29 02:41:03;;;;;;;9.05;4.78;;;;;;;14.81;89.25;96312.25;5095250;28;20394;-62
2023/06/29 02:43:30;;;;;;;6.05;4.88;;;;;;;14.73;89.11;96325.81;5094991;28;20135;-61
2023/06/29 02:45:58;;;;;;;6.72;5.18;;;;;;;14.77;89.85;96329.97;5095132;28;20092;-61
2023/06/29 02:48:25;;;;;;;9.10;5.10;;;;;;;14.82;90.92;96354.28;5095008;28;20432;-62
2023/06/29 02:50:54;;;;;;;8.70;5.10;;;;;;;14.91;91.26;96353.72;5095009;28;20080;-63
2023/06/29 02:53:21;;;;;;;6.43;4.70;;;;;;;14.93;91.51;96361.53;5094914;28;20136;-62
2023/06/29 02:55:48;;;;;;;6.93;4.47;;;;;;;14.96;90.61;96360.53;5094870;28;20131;-60
2023/06/29 02:58:15;;;;;;;6.55;4.90;;;;;;;14.90;90.65;96349.41;5094745;28;20471;-61
2023/06/29 03:00:42;;;;;;;9.85;4.53;;;;;;;14.89;89.78;96347.72;5094574;28;20135;-63
2023/06/29 03:03:09;;;;;;;9.52;5.00;;;;;;;14.88;89.30;96353.09;5094778;28;20044;-62
2023/06/29 03:05:36;;;;;;;5.43;4.93;;;;;;;14.91;89.10;96366.91;5094635;28;20048;-63
2023/06/29 03:08:05;;;;;;;7.93;3.92;;;;;;;14.93;89.65;96356.28;5094766;28;20051;-61
2023/06/29 03:10:32;;;;;;;5.40;4.68;;;;;;;14.96;89.68;96360.53;5094782;28;20051;-62
2023/06/29 03:12:59;;;;;;;7.38;4.80;;;;;;;14.96;90.54;96369.25;5094559;28;20090;-61
2023/06/29 03:15:26;;;;;;;7.55;4.30;;;;;;;15.00;91.13;96369.94;5094444;28;20052;-62
2023/06/29 03:17:53;;;;;;;4.78;4.30;;;;;;;15.01;91.29;96376.91;5094443;28;20044;-63
2023/06/29 03:20:20;;;;;;;7.63;5.18;;;;;;;15.02;91.47;96365.44;5094367;28;20048;-62
2023/06/29 03:22:47;;;;;;;4.50;4.05;;;;;;;14.99;91.53;96368.25;5094624;28;20047;-61
2023/06/29 03:25:16;;;;;;;7.35;4.18;;;;;;;15.01;90.86;96367.22;5094507;28;20097;-61
2023/06/29 03:27:43;;;;;;;4.60;4.20;;;;;;;15.06;91.12;96361.69;5094343;28;20456;-62
2023/06/29 03:30:11;;;;;;;6.95;3.83;;;;;;;14.98;89.96;96362.13;5094480;28;20121;-63
2023/06/29 03:32:38;;;;;;;6.78;4.35;;;;;;;14.98;89.46;96372.66;5094137;28;20051;-61
2023/06/29 03:35:07;;;;;;;4.72;4.20;;;;;;;14.99;89.20;96371.72;5094156;28;20072;-62
2023/06/29 03:37:34;;;;;;;9.27;5.03;;;;;;;15.00;89.35;96373.44;5094431;28;20047;-61
2023/06/29 03:40:01;;;;;;;8.52;4.18;;;;;;;15.02;90.54;96374.19;5093984;28;20084;-61
2023/06/29 03:42:29;;;;;;;7.28;4.32;;;;;;;15.10;90.84;96371.09;5093950;28;20044;-62
2023/06/29 03:44:56;;;;;;;4.57;4.10;;;;;;;15.15;90.34;96378.72;5093727;28;20044;-62
2023/06/29 03:47:24;;;;;;;6.57;4.43;;;;;;;15.18;89.92;96380.31;5094171;28;20044;-62
2023/06/29 03:49:51;;;;;;;5.15;3.80;;;;;;;15.19;90.30;96380.25;5093976;28;20056;-62
2023/06/29 03:52:18;;;;;;;4.18;3.88;;;;;;;15.10;89.63;96379.00;5093782;28;20497;-62
2023/06/29 03:54:48;;;;;;;5.45;4.15;;;;;;;15.05;89.36;96377.59;5093685;28;20075;-61
2023/06/29 03:57:15;;;;;;;10.30;4.20;;;;;;;15.04;90.61;96387.25;5093380;28;20083;-62
2023/06/29 03:59:44;;;;;;;7.65;4.70;;;;;;;15.09;92.52;96382.59;5093607;28;20543;-61
2023/06/29 04:02:12;;;;;;;6.30;3.33;;;;;;;15.10;91.10;96371.09;5093765;28;20121;-63
2023/06/29 04:04:39;;;;;;;8.70;4.13;;;;;;;15.05;91.62;96373.13;5093613;28;20139;-62
2023/06/29 04:07:06;;;;;;;4.15;3.75;;;;;;;15.15;87.88;96376.94;5093608;28;20481;-61
2023/06/29 04:09:34;;;;;;;5.22;3.90;;;;;;;15.24;88.32;96375.56;5093527;28;20443;-62
2023/06/29 04:12:01;;;;;;;8.13;3.88;;;;;;;15.51;88.19;96382.72;5093416;28;20138;-62
2023/06/29 04:14:28;;;;;;;4.68;4.28;;;;;;;16.15;88.71;96385.94;5093579;28;20059;-62
2023/06/29 04:16:56;;;;;;;4.70;3.60;;;;;;;16.86;83.36;96384.97;5093435;28;20093;-63
2023/06/29 04:19:23;;;;;;;3.75;2.88;;;;;;;17.48;77.52;96386.16;5093515;28;20131;-62
2023/06/29 04:21:50;;;;;;;11.02;3.28;;;;;;;18.10;74.65;96396.94;5093531;28;20043;-63
2023/06/29 04:24:18;;;;;;;5.78;2.88;;;;;;;18.72;71.25;96396.94;5093606;28;20078;-63
2023/06/29 04:26:45;;;;;;;4.63;2.83;;;;;;;19.13;66.33;96397.50;5093295;28;20056;-62
2023/06/29 04:29:12;;;;;;;4.03;2.90;;;;;;;19.62;67.33;96394.72;5093248;28;20048;-62
2023/06/29 04:31:39;;;;;;;5.50;3.00;;;;;;;19.67;62.60;96405.84;5093216;28;20562;-62
2023/06/29 04:34:08;;;;;;;9.55;2.35;;;;;;;19.84;61.72;96414.28;5093283;28;20387;-64
2023/06/29 04:36:35;;;;;;;4.60;2.53;;;;;;;20.14;64.50;96404.88;5093213;28;20051;-64
2023/06/29 04:39:03;;;;;;;7.80;2.55;;;;;;;20.63;63.47;96404.59;5093187;28;20055;-62
2023/06/29 04:41:33;;;;;;;6.75;3.10;;;;;;;21.18;63.48;96411.66;5093320;28;20052;-62
2023/06/29 04:44:01;;;;;;;5.47;2.50;;;;;;;21.56;60.17;96411.22;5093027;28;20052;-62
2023/06/29 04:46:31;;;;;;;3.55;2.60;;;;;;;21.85;59.30;96423.88;5093050;28;20050;-64
2023/06/29 04:49:04;;;;;;;3.97;2.50;;;;;;;21.44;54.86;96421.94;5093062;28;20052;-64
2023/06/29 04:51:34;;;;;;;5.07;2.53;;;;;;;21.48;55.08;96422.50;5093068;28;20064;-64
2023/06/29 04:54:01;;;;;;;2.60;2.30;;;;;;;21.81;55.70;96418.00;5093053;28;20044;-63
2023/06/29 04:56:29;;;;;;;5.93;2.45;;;;;;;22.09;53.37;96431.56;5092969;28;20515;-65
2023/06/29 04:58:56;;;;;;;5.65;2.28;;;;;;;22.04;52.90;96443.59;5092966;28;20079;-64
2023/06/29 05:01:23;;;;;;;3.03;2.60;;;;;;;22.14;55.44;96436.50;5092904;28;20093;-63
2023/06/29 05:03:50;;;;;;;7.00;2.70;;;;;;;22.46;56.33;96435.47;5092875;28;20047;-63
2023/06/29 05:06:18;;;;;;;3.15;2.40;;;;;;;22.81;55.26;96437.81;5092880;28;20055;-64
2023/06/29 05:08:46;;;;;;;2.95;2.22;;;;;;;22.81;54.26;96440.50;5095554;28;20044;-62
2023/06/29 05:11:13;;;;;;;4.22;2.30;;;;;;;23.01;51.90;96435.19;5096995;28;20067;-62
2023/06/29 05:13:40;;;;;;;3.30;1.98;;;;;;;23.04;49.87;96440.25;5096921;28;20084;-65
2023/06/29 05:16:08;;;;;;;6.20;2.50;;;;;;;23.01;49.66;96433.38;5096763;28;20129;-62
2023/06/29 05:18:37;;;;;;;3.63;2.40;;;;;;;23.06;52.05;96430.28;5096861;28;20123;-64
2023/06/29 05:21:04;;;;;;;3.22;2.17;;;;;;;23.03;48.79;96433.25;5096948;28;20048;-63
2023/06/29 05:23:31;;;;;;;3.42;2.00;;;;;;;23.35;51.22;96437.44;5096668;28;20048;-64
2023/06/29 05:26:00;;;;;;;4.10;2.42;;;;;;;23.23;47.88;96437.59;5096586;28;20051;-62
2023/06/29 05:28:27;;;;;;;2.38;2.17;;;;;;;23.01;50.30;96441.38;5096580;28;20079;-64
2023/06/29 05:30:54;;;;;;;7.28;3.63;;;;;;;22.94;52.05;96451.75;5096603;28;20093;-65
2023/06/29 05:33:22;;;;;;;3.30;2.30;;;;;;;22.97;49.89;96451.47;5096588;28;20052;-63
2023/06/29 05:35:49;;;;;;;4.05;2.50;;;;;;;23.06;50.69;96441.78;5096653;28;20048;-65
2023/06/29 05:38:16;;;;;;;4.80;2.42;;;;;;;23.12;49.42;96437.75;5096547;28;20109;-63
2023/06/29 05:40:43;;;;;;;2.60;2.03;;;;;;;22.90;50.90;96439.69;5096535;28;20052;-66
2023/06/29 05:43:12;;;;;;;3.00;2.45;;;;;;;22.78;50.10;96440.81;5096307;28;20051;-65
2023/06/29 05:45:39;;;;;;;4.53;2.50;;;;;;;23.19;54.15;96438.88;5096251;28;20166;-62
2023/06/29 05:48:07;;;;;;;3.47;2.30;;;;;;;23.40;49.66;96443.25;5096145;28;20105;-62
2023/06/29 05:50:34;;;;;;;5.30;2.30;;;;;;;23.18;51.02;96441.66;5096108;28;20413;-65
2023/06/29 05:53:01;;;;;;;2.70;2.38;;;;;;;23.42;49.23;96443.91;5096364;28;20087;-63
2023/06/29 05:55:28;;;;;;;3.92;2.40;;;;;;;23.75;51.70;96442.78;5096293;28;20044;-65
2023/06/29 05:57:55;;;;;;;3.17;2.35;;;;;;;23.85;47.22;96438.25;5096014;28;20059;-65
2023/06/29 06:00:25;;;;;;;6.32;2.60;;;;;;;23.95;46.62;96436.38;5095855;28;20092;-64
2023/06/29 06:02:53;;;;;;;3.05;2.67;;;;;;;24.14;47.81;96434.66;5095978;28;20048;-64
2023/06/29 06:05:20;;;;;;;5.40;2.63;;;;;;;24.41;48.47;96445.53;5095934;28;20055;-63
2023/06/29 06:07:48;;;;;;;4.28;2.28;;;;;;;24.57;46.01;96453.75;5095852;28;20554;-62
2023/06/29 06:10:15;;;;;;;6.28;2.65;;;;;;;24.95;46.80;96444.84;5096003;28;20548;-65
2023/06/29 06:12:42;;;;;;;2.38;2.13;;;;;;;25.15;46.64;96450.03;5095681;28;20070;-66
2023/06/29 06:15:13;;;;;;;3.35;2.60;;;;;;;25.20;44.17;96451.25;5095741;28;20131;-64
2023/06/29 06:17:42;;;;;;;2.20;1.92;;;;;;;25.10;45.61;96458.50;5095839;28;20044;-63
2023/06/29 06:20:10;;;;;;;2.92;1.95;;;;;;;25.44;44.62;96460.50;5095040;28;20493;-65
2023/06/29 06:22:37;;;;;;;6.25;2.35;;;;;;;25.73;42.94;96459.41;5095573;28;20044;-63
2023/06/29 06:25:05;;;;;;;3.00;2.72;;;;;;;25.87;43.31;96457.16;5095783;28;20093;-64
2023/06/29 06:27:32;;;;;;;7.30;2.30;;;;;;;26.08;42.54;96451.44;5095625;28;20048;-64
2023/06/29 06:30:00;;;;;;;3.63;2.30;;;;;;;26.23;42.03;96457.06;5095503;28;20048;-66
2023/06/29 06:32:27;;;;;;;3.95;2.20;;;;;;;26.41;42.68;96458.00;5095292;28;20048;-66
2023/06/29 06:34:55;;;;;;;4.97;2.25;;;;;;;26.57;41.41;96458.06;5095359;28;20131;-65
2023/06/29 06:37:22;;;;;;;2.38;2.00;;;;;;;26.68;40.21;96459.63;5095354;28;20482;-67
2023/06/29 06:39:50;;;;;;;4.60;2.20;;;;;;;26.33;42.52;96464.16;5095236;28;20142;-65
2023/06/29 06:42:17;;;;;;;6.78;2.15;;;;;;;26.32;42.41;96455.28;5095113;28;20136;-65
2023/06/29 06:44:51;;;;;;;3.05;2.20;;;;;;;26.11;42.81;96455.63;5094846;28;20048;-64
2023/06/29 06:47:19;;;;;;;2.70;2.20;;;;;;;25.71;42.03;96450.69;5094977;28;20040;-63
2023/06/29 06:49:47;;;;;;;3.17;2.10;;;;;;;25.94;43.71;96449.31;5095043;28;20062;-63
2023/06/29 06:52:16;;;;;;;4.85;2.33;;;;;;;26.06;42.61;96448.06;5095132;28;20401;-64
2023/06/29 06:54:44;;;;;;;3.40;2.38;;;;;;;26.28;42.76;96451.22;5094950;28;20080;-64
2023/06/29 06:57:11;;;;;;;7.30;2.20;;;;;;;26.28;41.47;96451.22;5094847;28;20058;-65
2023/06/29 06:59:39;;;;;;;2.28;2.08;;;;;;;26.12;40.19;96458.16;5094758;28;20102;-66
2023/06/29 07:02:07;;;;;;;3.58;2.20;;;;;;;26.44;41.33;96452.31;5094848;28;20497;-65
2023/06/29 07:04:34;;;;;;;7.05;2.75;;;;;;;26.55;42.70;96452.00;5094871;28;20134;-63
2023/06/29 07:07:01;;;;;;;3.28;2.00;;;;;;;26.61;40.49;96459.41;5094904;28;20131;-64
2023/06/29 07:09:30;;;;;;;6.88;2.58;;;;;;;26.76;40.53;96461.50;5094707;28;20048;-65
2023/06/29 07:11:57;;;;;;;2.65;2.45;;;;;;;26.74;40.50;96460.81;5094663;28;20123;-64
2023/06/29 07:14:24;;;;;;;5.30;2.05;;;;;;;26.42;40.63;96473.06;5094604;28;20055;-62
2023/06/29 07:16:52;;;;;;;2.28;2.00;;;;;;;26.76;40.73;96464.19;5094510;28;20043;-64
2023/06/29 07:19:19;;;;;;;2.97;2.20;;;;;;;26.77;40.49;96463.16;5094456;28;20105;-64
2023/06/29 07:21:46;;;;;;;5.70;2.50;;;;;;;26.77;41.23;96462.31;5094325;28;20406;-63
2023/06/29 07:24:14;;;;;;;2.65;2.10;;;;;;;26.84;39.41;96461.50;5094461;28;20052;-65
2023/06/29 07:26:43;;;;;;;5.38;2.17;;;;;;;26.83;40.93;96461.66;5094240;28;20097;-64
2023/06/29 07:29:10;;;;;;;2.88;2.17;;;;;;;26.79;40.58;96463.81;5094277;28;20055;-64
2023/06/29 07:31:38;;;;;;;2.70;2.50;;;;;;;26.94;39.81;96466.72;5093488;28;20048;-62
2023/06/29 07:34:05;;;;;;;3.15;2.45;;;;;;;27.04;41.56;96458.56;5094193;28;20452;-65
2023/06/29 07:36:34;;;;;;;5.28;2.60;;;;;;;27.16;41.02;96463.59;5094090;28;20455;-63
2023/06/29 07:39:01;;;;;;;3.90;2.05;;;;;;;27.36;39.75;96464.97;5094138;28;20040;-65
2023/06/29 07:41:29;;;;;;;2.45;1.85;;;;;;;27.77;38.33;96471.38;5093944;28;20522;-65
2023/06/29 07:43:57;;;;;;;3.55;2.30;;;;;;;27.80;37.78;96464.81;5093990;28;20048;-64
2023/06/29 07:46:25;;;;;;;2.78;2.10;;;;;;;27.59;39.31;96458.09;5094009;28;20569;-63
2023/06/29 07:48:53;;;;;;;5.60;2.60;;;;;;;27.41;38.83;96464.47;5093985;28;20572;-63
2023/06/29 07:51:21;;;;;;;3.85;2.30;;;;;;;27.55;39.81;96457.63;5093869;28;20075;-65
2023/06/29 07:53:50;;;;;;;5.28;2.35;;;;;;;27.30;39.62;96470.19;5093815;28;20127;-65
2023/06/29 07:56:17;;;;;;;2.67;2.25;;;;;;;27.08;38.57;96467.97;5093786;28;20414;-63
2023/06/29 07:58:44;;;;;;;3.30;2.10;;;;;;;26.84;38.92;96458.81;5093838;28;20048;-64
2023/06/29 08:01:12;;;;;;;6.20;2.15;;;;;;;26.87;39.83;96457.66;5093580;28;20079;-63
2023/06/29 08:03:39;;;;;;;5.20;1.83;;;;;;;26.67;37.16;96455.22;5093581;28;20162;-63
2023/06/29 08:06:06;;;;;;;3.33;2.17;;;;;;;26.58;37.39;96457.06;5093597;28;20052;-63
2023/06/29 08:08:34;;;;;;;5.70;2.17;;;;;;;26.46;40.77;96453.00;5093680;28;20126;-65
2023/06/29 08:11:01;;;;;;;4.32;2.50;;;;;;;26.51;41.74;96455.19;5093658;28;20051;-64
2023/06/29 08:13:29;;;;;;;4.55;2.30;;;;;;;26.64;38.63;96457.41;5093579;28;20048;-64
2023/06/29 08:15:56;;;;;;;5.68;2.40;;;;;;;26.83;40.55;96458.97;5093513;28;20440;-63
2023/06/29 08:18:24;;;;;;;6.68;2.10;;;;;;;27.24;40.80;96460.97;5093372;28;20131;-65
2023/06/29 08:20:51;;;;;;;4.55;1.80;;;;;;;27.57;40.86;96460.13;5093261;28;20051;-63
2023/06/29 08:23:18;;;;;;;3.63;1.50;;;;;;;27.40;36.74;96452.06;5093310;28;20502;-65
2023/06/29 08:25:45;;;;;;;2.53;1.58;;;;;;;27.52;37.25;96457.94;5093453;28;20059;-64
2023/06/29 08:28:12;;;;;;;2.15;1.80;;;;;;;27.42;34.96;96458.09;5093250;28;20040;-65
2023/06/29 08:30:39;;;;;;;1.60;1.50;;;;;;;27.17;34.59;96455.41;5093280;28;20063;-62
2023/06/29 08:33:06;;;;;;;5.38;1.60;;;;;;;27.19;36.37;96458.75;5093298;28;20044;-64
2023/06/29 08:35:35;;;;;;;2.50;1.58;;;;;;;27.32;37.04;96452.03;5093328;28;20074;-64
2023/06/29 08:38:02;;;;;;;2.42;1.63;;;;;;;27.05;35.60;96464.75;5093384;28;20051;-65
2023/06/29 08:40:35;;;;;;;2.15;1.83;;;;;;;26.92;37.13;96458.00;5093169;28;20144;-63
2023/06/29 08:43:03;;;;;;;1.60;1.30;;;;;;;26.94;37.26;96460.53;5098734;28;20626;-65
2023/06/29 08:45:30;;;;;;;3.53;1.73;;;;;;;26.97;35.07;96463.72;5099618;28;20101;-62
2023/06/29 08:47:57;;;;;;;3.65;1.85;;;;;;;26.79;35.10;96458.47;5099974;28;20048;-63
2023/06/29 08:50:26;;;;;;;1.70;1.48;;;;;;;26.92;34.54;96465.22;5099857;28;20489;-64
2023/06/29 08:52:57;;;;;;;5.80;1.48;;;;;;;26.88;34.61;96456.66;5099856;28;20044;-64
2023/06/29 08:55:24;;;;;;;2.17;1.60;;;;;;;27.01;35.30;96453.53;5099612;28;20161;-63
2023/06/29 08:57:55;;;;;;;2.45;1.60;;;;;;;27.08;36.23;96459.06;5099845;28;20091;-64
2023/06/29 09:00:24;;;;;;;4.70;1.60;;;;;;;27.10;35.40;96459.75;5099774;28;20052;-64
2023/06/29 09:02:53;;;;;;;2.03;1.40;;;;;;;27.15;35.66;96462.75;5099628;28;20528;-63
2023/06/29 09:05:21;;;;;;;3.28;1.30;;;;;;;27.21;34.22;96454.06;5099799;28;20043;-63
2023/06/29 09:07:50;;;;;;;6.45;1.48;;;;;;;27.17;34.67;96449.19;5099697;28;20481;-63
2023/06/29 09:10:19;;;;;;;4.95;1.40;;;;;;;26.96;33.98;96447.78;5099740;28;20131;-64
2023/06/29 09:12:46;;;;;;;2.55;1.38;;;;;;;26.78;33.92;96459.47;5099697;28;20052;-65
2023/06/29 09:15:15;;;;;;;1.50;1.40;;;;;;;26.61;35.71;96451.38;5099531;28;20105;-64
2023/06/29 09:17:45;;;;;;;2.08;1.45;;;;;;;26.68;36.51;96446.22;5099730;28;20048;-63
2023/06/29 09:20:18;;;;;;;2.97;1.17;;;;;;;26.83;34.53;96443.75;5099518;28;20131;-64
2023/06/29 09:22:51;;;;;;;1.48;1.35;;;;;;;26.84;34.08;96439.19;5099689;28;20132;-62
2023/06/29 09:25:21;;;;;;;3.85;1.50;;;;;;;26.81;34.90;96451.09;5099544;28;20048;-64
2023/06/29 09:27:48;;;;;;;3.92;1.42;;;;;;;26.75;36.02;96446.38;5099685;28;20047;-63
2023/06/29 09:30:19;;;;;;;1.45;1.20;;;;;;;26.92;33.89;96438.38;5099508;28;20131;-64
2023/06/29 09:32:46;;;;;;;1.52;1.42;;;;;;;26.94;35.07;96445.25;5099528;28;20047;-63
2023/06/29 09:35:13;;;;;;;2.50;1.50;;;;;;;26.88;33.89;96440.56;5099484;28;20048;-63
2023/06/29 09:37:41;;;;;;;3.45;1.50;;;;;;;26.97;34.46;96447.59;5099617;28;20482;-64
2023/06/29 09:40:12;;;;;;;5.30;1.30;;;;;;;26.98;33.91;96445.81;5099365;28;20040;-64
2023/06/29 09:42:40;;;;;;;2.30;1.38;;;;;;;26.83;34.29;96440.22;5099470;28;20058;-64
2023/06/29 09:45:12;;;;;;;2.53;1.75;;;;;;;26.90;35.39;96441.22;5099055;28;20438;-65
2023/06/29 09:47:41;;;;;;;2.78;1.15;;;;;;;26.98;32.70;96443.97;5099339;28;20413;-64
2023/06/29 09:50:18;;;;;;;4.03;1.30;;;;;;;26.89;35.29;96439.56;5099281;28;20413;-63
2023/06/29 09:52:47;;;;;;;1.80;1.52;;;;;;;27.02;35.60;96432.91;5098886;28;20040;-64
2023/06/29 09:55:15;;;;;;;3.17;1.38;;;;;;;27.04;33.86;96439.78;5095559;28;20044;-64
2023/06/29 09:57:45;;;;;;;1.70;1.40;;;;;;;26.85;34.52;96432.84;5096319;28;20048;-64
2023/06/29 10:00:13;;;;;;;3.75;1.42;;;;;;;26.47;34.95;96431.38;5096031;28;20044;-63
2023/06/29 10:02:41;;;;;;;2.90;1.60;;;;;;;26.42;37.38;96425.66;5095873;28;20070;-63
2023/06/29 10:05:09;;;;;;;1.20;1.10;;;;;;;26.65;37.14;96427.75;5095933;28;20054;-65
2023/06/29 10:07:37;;;;;;;3.25;1.25;;;;;;;26.79;37.64;96434.31;5095906;28;20052;-64
2023/06/29 10:10:06;;;;;;;2.85;1.50;;;;;;;26.71;33.29;96434.31;5095831;28;20105;-64
2023/06/29 10:12:33;;;;;;;3.67;1.30;;;;;;;26.52;34.02;96430.06;5095788;28;20044;-63
2023/06/29 10:15:09;;;;;;;2.28;1.25;;;;;;;26.51;33.91;96423.84;5095793;28;20486;-64
2023/06/29 10:17:45;;;;;;;1.45;1.35;;;;;;;26.50;35.25;96430.22;5095643;28;20040;-65
2023/06/29 10:20:15;;;;;;;3.00;1.27;;;;;;;26.62;35.50;96420.03;5095658;28;20047;-63
2023/06/29 10:22:44;;;;;;;2.22;1.55;;;;;;;26.59;35.31;96423.03;5095611;28;20055;-64
2023/06/29 10:25:15;;;;;;;1.60;1.30;;;;;;;26.55;37.26;96424.38;5095540;28;20040;-63
2023/06/29 10:27:44;;;;;;;5.05;2.35;;;;;;;26.71;37.76;96423.59;5095552;28;20127;-62
2023/06/29 10:30:18;;;;;;;3.85;1.77;;;;;;;26.77;36.26;96417.56;5095364;28;20070;-64
2023/06/29 10:32:49;;;;;;;2.20;1.30;;;;;;;26.93;34.87;96426.63;5095440;28;20059;-64
2023/06/29 10:35:16;;;;;;;4.13;1.65;;;;;;;26.68;34.85;96416.72;5095429;28;20481;-63
2023/06/29 10:37:46;;;;;;;1.80;1.30;;;;;;;26.65;35.47;96417.03;5095451;28;20048;-63
2023/06/29 10:40:15;;;;;;;3.20;1.63;;;;;;;26.68;36.24;96421.22;5095281;28;20095;-64
2023/06/29 10:42:56;;;;;;;3.25;1.73;;;;;;;27.00;34.72;96411.63;5095196;28;20058;-64
2023/06/29 10:45:34;;;;;;;;;;;;;;;27.07;35.64;96417.13;5095339;28;20063;-64
2023/06/29 10:48:06;;;;;;;2.08;1.50;;;;;;;26.86;34.78;96416.59;5095110;28;19999;-63
2023/06/29 10:50:36;;;;;;;1.50;1.40;;;;;;;26.09;30.89;96409.38;5095005;28;20062;-63
2023/06/29 10:53:05;;;;;;;;;;;;;;;26.02;34.78;96408.34;5095490;28;20094;-62
2023/06/29 10:55:40;;;;;;;2.05;1.52;;;;;;;26.12;33.50;96404.56;5094863;28;19920;-64
2023/06/29 10:58:16;;;;;;;1.33;1.20;;;;;;;26.05;33.80;96408.03;5094932;28;20048;-64
2023/06/29 11:00:44;;;;;;;3.28;1.50;;;;;;;25.92;33.65;96397.75;5094832;28;20512;-63
2023/06/29 11:03:12;;;;;;;2.70;1.33;;;;;;;25.87;37.01;96395.56;5094719;28;20048;-62
2023/06/29 11:05:41;;;;;;;2.33;1.40;;;;;;;25.73;35.56;96388.94;5093620;28;20048;-64
2023/06/29 11:08:09;;;;;;;1.70;1.10;;;;;;;25.95;35.53;96398.25;5094688;28;20558;-64
2023/06/29 11:10:36;;;;;;;3.92;1.00;;;;;;;26.16;36.47;96394.38;5094693;28;20048;-64
2023/06/29 11:13:09;;;;;;;2.65;1.30;;;;;;;26.03;36.46;96386.75;5094620;28;20052;-64
2023/06/29 11:15:36;;;;;;;2.03;1.30;;;;;;;26.10;34.29;96397.69;5094533;28;20514;-64
2023/06/29 11:18:07;;;;;;;1.42;1.30;;;;;;;26.15;33.95;96387.31;5094473;28;20048;-63
2023/06/29 11:20:37;;;;;;;2.67;1.20;;;;;;;26.05;32.97;96386.59;5094462;28;20040;-63
2023/06/29 11:23:04;;;;;;;1.20;1.10;;;;;;;26.06;32.34;96385.59;5094426;28;20079;-64
2023/06/29 11:25:31;;;;;;;3.88;1.50;;;;;;;26.04;34.61;96391.16;5094297;28;20089;-62
2023/06/29 11:27:59;;;;;;;2.15;1.27;;;;;;;26.04;33.48;96390.28;5094318;28;20087;-62
2023/06/29 11:30:27;;;;;;;1.20;1.00;;;;;;;26.17;34.87;96379.13;5094361;28;20127;-64
2023/06/29 11:32:54;;;;;;;1.88;1.30;;;;;;;26.17;36.26;96382.66;5094276;28;20055;-64
2023/06/29 11:35:23;;;;;;;4.45;1.20;;;;;;;26.39;35.53;96393.00;5094180;28;20044;-63
2023/06/29 11:37:57;;;;;;;3.17;1.20;;;;;;;26.46;33.57;96392.16;5094248;28;20040;-64